createdAt,value
2023-04-16T00:01:19.802Z,21.01
2023-04-16T00:03:50.822Z,21.17
2023-04-16T00:06:23.224Z,21.02
2023-04-16T00:08:54.891Z,21.35
2023-04-16T00:11:26.091Z,21.12
2023-04-16T00:13:57.593Z,20.84
2023-04-16T00:16:28.798Z,20.61
2023-04-16T00:19:00.372Z,20.81
2023-04-16T00:21:32.935Z,20.94
2023-04-16T00:24:04.251Z,21.43
2023-04-16T00:26:35.974Z,21.13
2023-04-16T00:29:07.721Z,20.75
2023-04-16T00:31:39.517Z,20.59
2023-04-16T00:34:10.865Z,20.31
2023-04-16T00:36:42.076Z,20.23
2023-04-16T00:39:13.708Z,19.85
2023-04-16T00:41:46.642Z,19.99
2023-04-16T00:44:18.344Z,19.98
2023-04-16T00:46:49.600Z,20.55
2023-04-16T00:49:21.088Z,20.47
2023-04-16T00:51:53.231Z,20.20
2023-04-16T00:54:24.919Z,20.30
2023-04-16T00:56:55.597Z,20.08
2023-04-16T00:59:26.775Z,20.08
2023-04-16T01:01:58.150Z,20.60
2023-04-16T01:04:32.200Z,20.61
2023-04-16T01:07:03.714Z,20.57
2023-04-16T01:09:37.209Z,21.30
2023-04-16T01:12:08.313Z,22.03
2023-04-16T01:14:39.951Z,21.33
2023-04-16T01:17:17.378Z,20.79
2023-04-16T01:19:49.080Z,20.47
2023-04-16T01:22:21.480Z,20.83
2023-04-16T01:24:53.285Z,21.51
2023-04-16T01:27:24.504Z,21.81
2023-04-16T01:29:55.906Z,22.23
2023-04-16T01:32:36.981Z,22.06
2023-04-16T01:35:08.614Z,21.78
2023-04-16T01:37:39.225Z,22.10
2023-04-16T01:40:11.009Z,21.58
2023-04-16T01:42:42.557Z,21.11
2023-04-16T01:45:14.508Z,21.08
2023-04-16T01:47:45.869Z,20.80
2023-04-16T01:50:17.818Z,20.58
2023-04-16T01:52:49.139Z,20.57
2023-04-16T01:55:20.881Z,20.69
2023-04-16T01:57:53.553Z,20.72
2023-04-16T02:00:29.230Z,20.98
2023-04-16T02:03:00.427Z,21.78
2023-04-16T02:05:32.712Z,21.96
2023-04-16T02:08:04.668Z,21.66
2023-04-16T02:10:35.473Z,21.26
2023-04-16T02:13:07.215Z,21.20
2023-04-16T02:15:38.734Z,20.88
2023-04-16T02:18:10.328Z,21.02
2023-04-16T02:20:45.617Z,20.84
2023-04-16T02:23:19.175Z,21.16
2023-04-16T02:25:50.590Z,21.03
2023-04-16T02:28:22.312Z,20.75
2023-04-16T02:30:54.686Z,21.07
2023-04-16T02:33:27.784Z,21.06
2023-04-16T02:36:04.350Z,20.64
2023-04-16T02:38:38.905Z,21.10
2023-04-16T02:41:10.915Z,21.03
2023-04-16T02:43:42.519Z,21.09
2023-04-16T02:46:14.296Z,21.79
2023-04-16T02:48:45.826Z,22.05
2023-04-16T02:51:23.362Z,21.62
2023-04-16T02:53:55.517Z,21.10
2023-04-16T02:56:26.617Z,21.59
2023-04-16T02:58:58.171Z,21.78
2023-04-16T03:01:30.543Z,22.31
2023-04-16T03:04:02.388Z,21.90
2023-04-16T03:06:34.118Z,21.65
2023-04-16T03:09:05.809Z,21.43
2023-04-16T03:11:37.095Z,21.65
2023-04-16T03:14:09.167Z,21.40
2023-04-16T03:16:41.287Z,21.84
2023-04-16T03:19:13.335Z,21.10
2023-04-16T03:21:44.793Z,21.04
2023-04-16T03:24:16.207Z,21.29
2023-04-16T03:26:47.060Z,20.79
2023-04-16T03:29:18.542Z,20.76
2023-04-16T03:31:51.219Z,20.69
2023-04-16T03:34:22.976Z,21.04
2023-04-16T03:36:54.630Z,20.78
2023-04-16T03:39:25.687Z,21.01
2023-04-16T03:41:57.150Z,20.80
2023-04-16T03:44:29.201Z,20.72
2023-04-16T03:47:00.752Z,21.20
2023-04-16T03:49:32.890Z,21.14
2023-04-16T03:52:04.696Z,20.61
2023-04-16T03:54:35.507Z,20.77
2023-04-16T03:57:29.316Z,20.45
2023-04-16T04:00:07.609Z,20.38
2023-04-16T04:02:48.721Z,20.42
2023-04-16T04:05:23.163Z,20.47
2023-04-16T04:07:55.846Z,20.42
2023-04-16T04:10:27.565Z,20.40
2023-04-16T04:12:59.127Z,20.45
2023-04-16T04:15:31.587Z,20.43
2023-04-16T04:18:03.277Z,20.21
2023-04-16T04:20:35.546Z,19.92
2023-04-16T04:23:06.754Z,20.00
2023-04-16T04:25:38.473Z,19.95
2023-04-16T04:28:11.787Z,19.80
2023-04-16T04:30:44.092Z,19.60
2023-04-16T04:33:16.493Z,19.73
2023-04-16T04:35:47.905Z,19.56
2023-04-16T04:38:23.530Z,19.61
2023-04-16T04:40:55.747Z,19.53
2023-04-16T04:43:28.169Z,19.46
2023-04-16T04:45:59.672Z,19.51
2023-04-16T04:48:32.634Z,19.37
2023-04-16T04:51:05.657Z,19.41
2023-04-16T04:53:37.182Z,19.24
2023-04-16T04:56:12.818Z,19.28
2023-04-16T04:58:44.865Z,19.29
2023-04-16T05:01:16.422Z,18.95
2023-04-16T05:03:47.650Z,19.04
2023-04-16T05:06:18.628Z,18.98
2023-04-16T05:08:50.026Z,18.87
2023-04-16T05:11:22.117Z,18.86
2023-04-16T05:13:53.563Z,18.79
2023-04-16T05:16:33.517Z,18.81
2023-04-16T05:19:05.499Z,18.68
2023-04-16T05:21:37.992Z,18.52
2023-04-16T05:24:09.805Z,18.57
2023-04-16T05:26:41.389Z,18.51
2023-04-16T05:29:12.710Z,18.46
2023-04-16T05:31:44.132Z,18.30
2023-04-16T05:34:15.689Z,18.40
2023-04-16T05:36:47.606Z,18.38
2023-04-16T05:39:19.553Z,18.20
2023-04-16T05:41:50.708Z,18.26
2023-04-16T05:44:22.142Z,18.25
2023-04-16T05:46:54.317Z,18.20
2023-04-16T05:49:25.873Z,18.07
2023-04-16T05:51:56.863Z,18.10
2023-04-16T05:54:28.365Z,18.08
2023-04-16T05:56:59.686Z,18.08
2023-04-16T05:59:34.063Z,18.01
2023-04-16T06:02:06.139Z,17.97
2023-04-16T06:04:37.781Z,17.91
2023-04-16T06:07:08.884Z,17.94
2023-04-16T06:09:40.111Z,17.82
2023-04-16T06:12:12.226Z,17.81
2023-04-16T06:14:42.579Z,17.86
2023-04-16T06:17:13.752Z,17.81
2023-04-16T06:19:45.168Z,17.77
2023-04-16T06:22:17.356Z,17.78
2023-04-16T06:24:48.542Z,17.79
2023-04-16T06:27:19.946Z,17.68
2023-04-16T06:29:51.308Z,17.76
2023-04-16T06:32:22.515Z,17.75
2023-04-16T06:34:53.520Z,17.71
2023-04-16T06:37:24.664Z,17.62
2023-04-16T06:39:55.812Z,17.63
2023-04-16T06:42:26.943Z,17.59
2023-04-16T06:44:58.307Z,17.58
2023-04-16T06:47:29.649Z,17.54
2023-04-16T06:50:00.857Z,17.59
2023-04-16T06:52:33.647Z,17.52
2023-04-16T06:55:05.327Z,17.52
2023-04-16T06:57:37.495Z,17.50
2023-04-16T07:00:09.820Z,17.51
2023-04-16T07:02:41.022Z,17.50
2023-04-16T07:05:11.791Z,17.44
2023-04-16T07:07:43.063Z,17.44
2023-04-16T07:10:14.568Z,17.37
2023-04-16T07:12:45.838Z,17.33
2023-04-16T07:15:16.918Z,17.42
2023-04-16T07:17:48.422Z,17.39
2023-04-16T07:20:19.951Z,17.45
2023-04-16T07:22:52.112Z,17.35
2023-04-16T07:25:23.752Z,17.34
2023-04-16T07:27:55.085Z,17.23
2023-04-16T07:30:26.376Z,17.31
2023-04-16T07:32:58.103Z,17.25
2023-04-16T07:35:29.962Z,17.23
2023-04-16T07:38:00.568Z,17.22
2023-04-16T07:40:33.789Z,17.29
2023-04-16T07:43:06.807Z,17.23
2023-04-16T07:45:38.109Z,17.25
2023-04-16T07:48:09.675Z,17.16
2023-04-16T07:50:40.879Z,17.16
2023-04-16T07:53:12.322Z,17.15
2023-04-16T07:55:43.204Z,17.15
2023-04-16T07:58:14.428Z,17.20
2023-04-16T08:00:47.754Z,17.11
2023-04-16T08:03:20.074Z,17.08
2023-04-16T08:05:51.502Z,17.13
2023-04-16T08:08:23.041Z,17.15
2023-04-16T08:10:57.270Z,17.00
2023-04-16T08:13:28.855Z,17.09
2023-04-16T08:16:00.177Z,17.02
2023-04-16T08:18:31.582Z,17.06
2023-04-16T08:21:03.194Z,16.99
2023-04-16T08:23:35.491Z,16.99
2023-04-16T08:26:06.771Z,17.05
2023-04-16T08:28:37.881Z,17.02
2023-04-16T08:31:09.163Z,17.01
2023-04-16T08:33:40.379Z,17.07
2023-04-16T08:36:12.003Z,17.02
2023-04-16T08:38:42.788Z,17.05
2023-04-16T08:41:15.440Z,16.93
2023-04-16T08:43:47.647Z,17.00
2023-04-16T08:46:20.335Z,16.91
2023-04-16T08:48:52.084Z,16.89
2023-04-16T08:51:25.792Z,16.89
2023-04-16T08:54:05.219Z,16.85
2023-04-16T08:56:40.275Z,17.02
2023-04-16T08:59:12.798Z,17.01
2023-04-16T09:01:44.003Z,16.98
2023-04-16T09:04:17.284Z,16.98
2023-04-16T09:06:48.961Z,17.01
2023-04-16T09:09:24.103Z,16.99
2023-04-16T09:11:56.156Z,16.97
2023-04-16T09:14:26.623Z,17.05
2023-04-16T09:16:57.684Z,17.06
2023-04-16T09:19:30.602Z,17.06
2023-04-16T09:22:02.249Z,17.08
2023-04-16T09:24:34.451Z,17.03
2023-04-16T09:27:05.625Z,17.11
2023-04-16T09:29:39.733Z,17.12
2023-04-16T09:32:13.098Z,17.12
2023-04-16T09:34:56.566Z,17.13
2023-04-16T09:37:32.136Z,17.04
2023-04-16T09:40:05.455Z,17.03
2023-04-16T09:42:41.532Z,16.94
2023-04-16T09:45:13.359Z,16.94
2023-04-16T09:47:46.956Z,16.97
2023-04-16T09:50:19.859Z,16.95
2023-04-16T09:52:53.148Z,16.97
2023-04-16T09:55:29.914Z,16.98
2023-04-16T09:58:05.067Z,16.87
2023-04-16T10:00:36.423Z,16.86
2023-04-16T10:03:14.831Z,16.75
2023-04-16T10:05:46.101Z,16.83
2023-04-16T10:08:18.868Z,16.67
2023-04-16T10:10:50.093Z,16.68
2023-04-16T10:13:21.367Z,16.74
2023-04-16T10:15:52.812Z,16.78
2023-04-16T10:18:24.769Z,16.69
2023-04-16T10:20:56.386Z,16.63
2023-04-16T10:23:27.679Z,16.56
2023-04-16T10:26:01.695Z,16.51
2023-04-16T10:28:33.252Z,16.52
2023-04-16T10:31:11.003Z,16.53
2023-04-16T10:33:43.317Z,16.54
2023-04-16T10:36:19.638Z,16.56
2023-04-16T10:38:55.959Z,16.58
2023-04-16T10:41:28.590Z,16.62
2023-04-16T10:44:13.087Z,16.61
2023-04-16T10:46:46.282Z,16.49
2023-04-16T10:49:22.191Z,16.55
2023-04-16T10:52:08.875Z,16.52
2023-04-16T10:54:40.676Z,16.59
2023-04-16T10:57:22.705Z,16.62
2023-04-16T10:59:54.365Z,16.66
2023-04-16T11:02:31.366Z,16.63
2023-04-16T11:05:04.330Z,16.69
2023-04-16T11:07:37.414Z,16.68
2023-04-16T11:10:09.576Z,16.63
2023-04-16T11:12:49.890Z,16.67
2023-04-16T11:15:21.474Z,16.65
2023-04-16T11:17:54.144Z,16.75
2023-04-16T11:20:27.556Z,16.71
2023-04-16T11:23:00.672Z,16.67
2023-04-16T11:25:35.685Z,16.74
2023-04-16T11:28:07.681Z,16.72
2023-04-16T11:30:41.002Z,16.73
2023-04-16T11:33:13.663Z,16.68
2023-04-16T11:35:45.030Z,16.63
2023-04-16T11:38:16.236Z,16.62
2023-04-16T11:40:47.556Z,16.54
2023-04-16T11:43:19.562Z,16.56
2023-04-16T11:46:12.821Z,16.58
2023-04-16T11:48:57.558Z,16.49
2023-04-16T11:51:28.933Z,16.41
2023-04-16T11:54:00.401Z,16.36
2023-04-16T11:56:34.381Z,16.31
2023-04-16T11:59:15.973Z,16.30
2023-04-16T12:01:55.014Z,16.24
2023-04-16T12:04:28.745Z,16.13
2023-04-16T12:07:16.200Z,15.97
2023-04-16T12:09:47.524Z,15.90
2023-04-16T12:12:34.523Z,15.80
2023-04-16T12:15:06.657Z,15.61
2023-04-16T12:17:39.796Z,15.59
2023-04-16T12:20:12.610Z,15.56
2023-04-16T12:22:48.765Z,15.54
2023-04-16T12:25:20.187Z,15.47
2023-04-16T12:27:54.031Z,15.38
2023-04-16T12:30:28.053Z,15.33
2023-04-16T12:33:18.758Z,15.36
2023-04-16T12:35:50.534Z,15.29
2023-04-16T12:38:24.290Z,15.19
2023-04-16T12:40:58.292Z,15.26
2023-04-16T12:43:30.017Z,15.32
2023-04-16T12:46:03.524Z,15.22
2023-04-16T12:48:36.133Z,15.27
2023-04-16T12:51:07.424Z,15.29
2023-04-16T12:53:38.486Z,15.24
2023-04-16T12:56:09.691Z,15.20
2023-04-16T12:58:41.429Z,15.26
2023-04-16T13:01:13.536Z,15.22
2023-04-16T13:03:44.979Z,15.17
2023-04-16T13:06:17.289Z,15.13
2023-04-16T13:08:48.789Z,15.10
2023-04-16T13:11:20.816Z,15.12
2023-04-16T13:13:52.411Z,15.12
2023-04-16T13:16:23.819Z,15.08
2023-04-16T13:18:55.174Z,15.11
2023-04-16T13:21:26.492Z,15.02
2023-04-16T13:23:57.998Z,15.02
2023-04-16T13:26:29.356Z,14.95
2023-04-16T13:29:00.119Z,15.09
2023-04-16T13:31:31.772Z,15.12
2023-04-16T13:34:03.210Z,15.13
2023-04-16T13:36:35.111Z,15.20
2023-04-16T13:39:12.770Z,15.28
2023-04-16T13:41:44.006Z,15.26
2023-04-16T13:44:15.452Z,15.14
2023-04-16T13:46:49.220Z,15.13
2023-04-16T13:49:20.915Z,15.15
2023-04-16T13:51:51.745Z,15.11
2023-04-16T13:54:23.157Z,15.08
2023-04-16T13:56:53.966Z,15.06
2023-04-16T13:59:25.254Z,15.14
2023-04-16T14:01:56.896Z,15.11
2023-04-16T14:04:28.446Z,15.09
2023-04-16T14:06:59.952Z,15.10
2023-04-16T14:09:31.067Z,15.11
2023-04-16T14:12:02.300Z,15.18
2023-04-16T14:14:33.471Z,15.18
2023-04-16T14:17:04.836Z,15.20
2023-04-16T14:19:36.245Z,15.11
2023-04-16T14:22:09.271Z,15.11
2023-04-16T14:24:41.163Z,15.13
2023-04-16T14:27:12.702Z,15.09
2023-04-16T14:29:43.921Z,15.12
2023-04-16T14:32:15.890Z,14.82
2023-04-16T14:34:47.788Z,14.73
2023-04-16T14:37:20.220Z,14.68
2023-04-16T14:39:51.928Z,14.71
2023-04-16T14:42:24.037Z,14.63
2023-04-16T14:44:55.522Z,14.60
2023-04-16T14:47:26.943Z,14.55
2023-04-16T14:49:58.271Z,14.57
2023-04-16T14:52:30.110Z,14.65
2023-04-16T14:55:01.552Z,14.60
2023-04-16T14:57:34.808Z,14.66
2023-04-16T15:00:13.486Z,14.71
2023-04-16T15:02:45.234Z,14.64
2023-04-16T15:05:17.218Z,14.63
2023-04-16T15:07:48.825Z,14.68
2023-04-16T15:10:20.318Z,14.71
2023-04-16T15:12:51.808Z,14.68
2023-04-16T15:15:23.357Z,14.70
2023-04-16T15:17:54.995Z,14.72
2023-04-16T15:20:26.683Z,14.70
2023-04-16T15:22:58.361Z,14.68
2023-04-16T15:25:29.847Z,14.75
2023-04-16T15:28:01.425Z,14.76
2023-04-16T15:30:33.644Z,14.75
2023-04-16T15:33:05.506Z,14.75
2023-04-16T15:35:42.573Z,14.69
2023-04-16T15:38:14.333Z,14.62
2023-04-16T15:40:45.833Z,14.49
2023-04-16T15:43:18.396Z,14.54
2023-04-16T15:45:49.738Z,14.35
2023-04-16T15:48:21.168Z,14.30
2023-04-16T15:50:53.348Z,14.18
2023-04-16T15:53:25.198Z,14.07
2023-04-16T15:55:55.951Z,14.04
2023-04-16T15:58:27.163Z,13.95
2023-04-16T16:00:58.902Z,13.94
2023-04-16T16:03:31.115Z,13.86
2023-04-16T16:06:05.250Z,13.84
2023-04-16T16:08:37.424Z,13.76
2023-04-16T16:11:08.898Z,13.71
2023-04-16T16:13:40.056Z,13.69
2023-04-16T16:16:11.080Z,13.61
2023-04-16T16:18:43.665Z,13.60
2023-04-16T16:21:15.002Z,13.53
2023-04-16T16:23:46.327Z,13.40
2023-04-16T16:26:18.092Z,13.32
2023-04-16T16:28:50.797Z,13.24
2023-04-16T16:31:22.320Z,13.34
2023-04-16T16:33:54.320Z,13.37
2023-04-16T16:36:25.741Z,13.52
2023-04-16T16:38:58.565Z,13.48
2023-04-16T16:41:30.199Z,13.47
2023-04-16T16:44:01.397Z,13.53
2023-04-16T16:46:32.765Z,13.49
2023-04-16T16:49:06.721Z,13.50
2023-04-16T16:51:38.210Z,13.49
2023-04-16T16:54:10.091Z,13.50
2023-04-16T16:56:41.734Z,13.47
2023-04-16T16:59:13.337Z,13.47
2023-04-16T17:01:44.493Z,13.48
2023-04-16T17:04:16.584Z,13.46
2023-04-16T17:06:49.809Z,13.37
2023-04-16T17:09:21.726Z,13.33
2023-04-16T17:11:52.897Z,13.28
2023-04-16T17:14:24.257Z,13.29
2023-04-16T17:16:55.881Z,13.24
2023-04-16T17:19:27.556Z,13.34
2023-04-16T17:21:58.712Z,13.40
2023-04-16T17:24:30.074Z,13.43
2023-04-16T17:27:01.617Z,13.41
2023-04-16T17:29:33.273Z,13.42
2023-04-16T17:32:04.445Z,13.47
2023-04-16T17:34:37.532Z,13.56
2023-04-16T17:37:08.784Z,13.59
2023-04-16T17:39:40.187Z,13.63
2023-04-16T17:42:11.373Z,13.77
2023-04-16T17:44:42.669Z,13.74
2023-04-16T17:47:14.233Z,13.76
2023-04-16T17:49:46.004Z,13.88
2023-04-16T17:52:16.790Z,14.03
2023-04-16T17:54:48.200Z,14.06
2023-04-16T17:57:19.703Z,14.07
2023-04-16T17:59:51.261Z,14.01
2023-04-16T18:02:22.439Z,14.04
2023-04-16T18:04:53.757Z,14.05
2023-04-16T18:07:25.016Z,14.01
2023-04-16T18:09:56.420Z,13.98
2023-04-16T18:12:27.578Z,13.96
2023-04-16T18:14:58.853Z,13.88
2023-04-16T18:17:30.505Z,13.90
2023-04-16T18:20:01.433Z,13.89
2023-04-16T18:22:33.633Z,13.83
2023-04-16T18:25:05.292Z,13.84
2023-04-16T18:27:36.903Z,13.69
2023-04-16T18:32:56.120Z,13.63
2023-04-16T18:35:32.894Z,13.64
2023-04-16T18:38:04.282Z,13.61
2023-04-16T18:40:39.421Z,13.65
2023-04-16T18:43:10.580Z,13.49
2023-04-16T18:45:41.804Z,13.51
2023-04-16T18:48:13.007Z,13.53
2023-04-16T18:50:44.505Z,13.48
2023-04-16T18:53:25.458Z,13.53
2023-04-16T18:55:56.918Z,13.58
2023-04-16T18:58:29.647Z,13.58
2023-04-16T19:01:01.057Z,13.58
2023-04-16T19:03:32.580Z,13.53
2023-04-16T19:06:03.923Z,13.54
2023-04-16T19:08:35.321Z,13.60
2023-04-16T19:11:06.970Z,13.56
2023-04-16T19:13:39.586Z,13.56
2023-04-16T19:16:12.732Z,13.53
2023-04-16T19:18:44.095Z,13.52
2023-04-16T19:21:15.377Z,13.46
2023-04-16T19:23:46.931Z,13.50
2023-04-16T19:26:18.361Z,13.46
2023-04-16T19:28:49.754Z,13.44
2023-04-16T19:31:21.071Z,13.43
2023-04-16T19:33:52.331Z,13.48
2023-04-16T19:36:23.561Z,13.51
2023-04-16T19:38:55.358Z,13.55
2023-04-16T19:41:26.330Z,13.68
2023-04-16T19:43:57.603Z,14.40
2023-04-16T19:46:28.954Z,15.61
2023-04-16T19:49:00.236Z,15.69
2023-04-16T19:51:32.730Z,16.04
2023-04-16T19:54:03.796Z,16.25
2023-04-16T19:56:35.549Z,16.22
2023-04-16T19:59:06.729Z,16.24
2023-04-16T20:01:38.362Z,15.67
2023-04-16T20:04:09.436Z,15.21
2023-04-16T20:06:40.838Z,15.09
2023-04-16T20:09:12.856Z,15.12
2023-04-16T20:11:43.446Z,15.13
2023-04-16T20:14:15.436Z,15.24
2023-04-16T20:16:47.272Z,15.34
2023-04-16T20:19:23.624Z,15.45
2023-04-16T20:21:55.471Z,15.73
2023-04-16T20:24:28.086Z,15.62
2023-04-16T20:26:59.509Z,15.41
2023-04-16T20:29:30.737Z,15.71
2023-04-16T20:32:02.228Z,15.70
2023-04-16T20:34:33.476Z,15.75
2023-04-16T20:37:04.992Z,15.85
2023-04-16T20:39:37.561Z,15.87
2023-04-16T20:42:11.996Z,16.01
2023-04-16T20:44:43.184Z,16.11
2023-04-16T20:47:16.200Z,16.31
2023-04-16T20:49:50.308Z,16.47
2023-04-16T20:52:21.556Z,16.48
2023-04-16T20:54:53.765Z,16.66
2023-04-16T20:57:24.813Z,16.69
2023-04-16T20:59:55.944Z,16.64
2023-04-16T21:02:29.340Z,16.96
2023-04-16T21:05:00.791Z,17.27
2023-04-16T21:07:34.474Z,17.39
2023-04-16T21:10:05.730Z,17.33
2023-04-16T21:12:37.966Z,17.46
2023-04-16T21:15:09.978Z,17.44
2023-04-16T21:17:40.578Z,17.66
2023-04-16T21:20:14.860Z,18.03
2023-04-16T21:22:46.278Z,18.35
2023-04-16T21:25:17.757Z,18.99
2023-04-16T21:27:50.417Z,20.12
2023-04-16T21:30:22.530Z,20.28
2023-04-16T21:32:53.289Z,20.57
2023-04-16T21:35:24.803Z,20.79
2023-04-16T21:37:57.286Z,21.33
2023-04-16T21:40:28.316Z,21.51
2023-04-16T21:42:59.601Z,21.90
2023-04-16T21:45:30.864Z,21.00
2023-04-16T21:48:02.137Z,21.78
2023-04-16T21:50:33.266Z,20.91
2023-04-16T21:53:05.837Z,21.25
2023-04-16T21:55:37.744Z,21.69
2023-04-16T21:58:09.502Z,22.30
2023-04-16T22:00:41.003Z,22.51
2023-04-16T22:03:14.005Z,22.68
2023-04-16T22:05:46.134Z,22.97
2023-04-16T22:08:24.618Z,23.15
2023-04-16T22:11:00.663Z,22.73
2023-04-16T22:13:37.942Z,23.39
2023-04-16T22:16:11.760Z,22.45
2023-04-16T22:18:43.343Z,22.95
2023-04-16T22:21:14.743Z,23.91
2023-04-16T22:23:48.200Z,23.77
2023-04-16T22:26:19.599Z,23.93
2023-04-16T22:28:50.947Z,23.20
2023-04-16T22:31:22.356Z,22.90
2023-04-16T22:33:55.984Z,23.31
2023-04-16T22:36:28.266Z,24.01
2023-04-16T22:39:00.255Z,23.81
2023-04-16T22:41:31.910Z,23.63
2023-04-16T22:44:03.321Z,24.83
2023-04-16T22:46:34.769Z,24.38
2023-04-16T22:49:05.452Z,24.76
2023-04-16T22:51:36.736Z,24.78
2023-04-16T22:54:08.663Z,24.05
2023-04-16T22:56:40.420Z,24.14
2023-04-16T22:59:12.404Z,22.58
2023-04-16T23:01:44.232Z,24.25
2023-04-16T23:04:15.455Z,23.32
2023-04-16T23:06:46.500Z,23.50
2023-04-16T23:09:18.550Z,23.60
2023-04-16T23:11:50.048Z,22.68
2023-04-16T23:14:21.120Z,22.40
2023-04-16T23:16:52.465Z,22.36
2023-04-16T23:19:23.849Z,22.96
2023-04-16T23:21:54.579Z,23.56
2023-04-16T23:24:25.789Z,22.91
2023-04-16T23:26:57.613Z,22.37
2023-04-16T23:29:29.020Z,23.64
2023-04-16T23:32:00.439Z,23.93
2023-04-16T23:34:31.929Z,23.73
2023-04-16T23:37:03.521Z,24.10
2023-04-16T23:39:35.874Z,24.56
2023-04-16T23:42:07.486Z,24.06
2023-04-16T23:44:39.126Z,24.78
2023-04-16T23:47:10.403Z,23.36
2023-04-16T23:49:41.638Z,22.25
2023-04-16T23:52:13.044Z,22.41
2023-04-16T23:54:44.388Z,22.44
2023-04-16T23:57:16.684Z,22.66
2023-04-16T23:59:48.407Z,22.06
